Time;durP1;ratioP1;P1;durP2;ratioP2;P2;SDS_P1;SDS_P2;PMS_P1;PMS_P2;Temp;Humidity;BMP_temperature;BMP_pressure;BME280_temperature;BME280_humidity;BME280_pressure;Samples;Min_cycle;Max_cycle;Signal;HPM_P1;HPM_P2
2023/03/10 00:02:04;;;;;;;8.82;5.75;;;8.50;78.60;;;;;;4979489;28;20596;-79
2023/03/10 00:04:30;;;;;;;9.75;5.65;;;8.60;78.70;;;;;;4979358;28;20173;-80
2023/03/10 00:06:55;;;;;;;9.18;5.90;;;8.60;78.60;;;;;;4979487;28;20088;-79
2023/03/10 00:09:21;;;;;;;8.75;5.38;;;8.50;78.60;;;;;;4979162;28;20093;-80
2023/03/10 00:11:47;;;;;;;9.07;5.88;;;8.50;78.60;;;;;;4979274;28;20784;-80
2023/03/10 00:14:12;;;;;;;8.52;5.80;;;8.60;78.70;;;;;;4996550;28;20019;-79
2023/03/10 00:16:38;;;;;;;8.38;4.97;;;8.60;78.60;;;;;;4979359;28;20057;-80
2023/03/10 00:19:03;;;;;;;8.40;5.30;;;8.50;78.60;;;;;;4979125;28;20041;-80
2023/03/10 00:21:30;;;;;;;8.27;5.30;;;8.60;78.60;;;;;;4979227;28;20058;-80
2023/03/10 00:23:57;;;;;;;8.00;5.45;;;8.50;78.60;;;;;;4978495;28;20022;-80
2023/03/10 00:26:24;;;;;;;8.38;5.47;;;8.60;78.60;;;;;;4996702;28;20097;-80
2023/03/10 00:28:50;;;;;;;8.07;5.22;;;8.60;78.60;;;;;;4979286;28;20023;-80
2023/03/10 00:31:21;;;;;;;8.52;5.40;;;8.60;78.70;;;;;;4979232;28;20033;-80
2023/03/10 00:33:47;;;;;;;8.15;5.40;;;8.50;78.60;;;;;;4996790;28;20100;-81
2023/03/10 00:36:15;;;;;;;8.45;5.38;;;8.60;78.70;;;;;;4978667;28;20572;-80
2023/03/10 00:38:42;;;;;;;8.10;4.93;;;8.50;78.60;;;;;;4996519;28;20516;-80
2023/03/10 00:41:11;;;;;;;7.95;5.50;;;8.50;78.70;;;;;;4996393;28;20427;-81
2023/03/10 00:43:37;;;;;;;7.60;5.20;;;8.60;78.70;;;;;;4978740;28;20030;-80
2023/03/10 00:46:03;;;;;;;8.60;5.35;;;8.50;78.70;;;;;;4978759;28;20508;-80
2023/03/10 00:48:29;;;;;;;8.25;5.05;;;8.50;78.70;;;;;;4978650;28;20092;-80
2023/03/10 00:50:56;;;;;;;7.60;4.82;;;8.60;78.70;;;;;;4978854;28;20473;-80
2023/03/10 00:53:21;;;;;;;8.10;5.28;;;8.60;78.70;;;;;;4978787;28;20396;-80
2023/03/10 00:55:56;;;;;;;8.02;5.03;;;8.50;79.20;;;;;;4996063;28;20026;-80
2023/03/10 00:58:22;;;;;;;7.43;4.68;;;8.60;78.60;;;;;;4996028;28;20460;-80
2023/03/10 01:00:47;;;;;;;7.57;4.60;;;8.60;78.70;;;;;;4978771;28;20026;-80
2023/03/10 01:03:13;;;;;;;7.93;4.93;;;8.50;78.60;;;;;;4978794;28;20116;-81
2023/03/10 01:05:38;;;;;;;8.45;4.97;;;8.60;78.70;;;;;;4977849;28;20027;-79
2023/03/10 01:08:04;;;;;;;7.57;4.80;;;8.50;78.70;;;;;;4995877;28;20052;-80
2023/03/10 01:10:30;;;;;;;8.02;4.65;;;8.60;78.70;;;;;;4996106;28;20045;-80
2023/03/10 01:12:55;;;;;;;7.60;4.60;;;8.50;78.60;;;;;;4978535;28;20109;-80
2023/03/10 01:15:21;;;;;;;7.53;4.72;;;8.50;78.70;;;;;;4978227;28;20515;-79
2023/03/10 01:17:46;;;;;;;7.05;4.53;;;8.60;78.70;;;;;;4995649;28;20038;-80
2023/03/10 01:20:14;;;;;;;7.28;4.25;;;8.50;78.70;;;;;;4978162;28;20033;-80
2023/03/10 01:22:40;;;;;;;8.00;4.93;;;8.60;78.70;;;;;;4978211;28;20026;-79
2023/03/10 01:25:06;;;;;;;7.50;4.45;;;8.50;78.70;;;;;;4978025;28;20026;-79
2023/03/10 01:27:31;;;;;;;7.82;4.80;;;8.60;78.80;;;;;;4977992;28;20040;-80
2023/03/10 01:29:57;;;;;;;7.70;4.63;;;8.60;78.80;;;;;;4978293;28;20022;-80
2023/03/10 01:32:22;;;;;;;6.68;4.03;;;8.60;78.80;;;;;;4978004;28;20026;-81
2023/03/10 01:34:48;;;;;;;7.18;4.35;;;8.50;78.70;;;;;;4978290;28;20022;-80
2023/03/10 01:37:13;;;;;;;6.25;3.88;;;8.50;78.70;;;;;;4995491;28;20026;-80
2023/03/10 01:39:39;;;;;;;6.93;4.10;;;8.50;78.70;;;;;;4995513;28;20027;-79
2023/03/10 01:42:04;;;;;;;7.40;4.47;;;8.50;78.70;;;;;;4995587;28;20061;-80
2023/03/10 01:44:30;;;;;;;7.35;4.30;;;8.50;78.70;;;;;;4977856;28;20436;-80
2023/03/10 01:46:57;;;;;;;7.53;4.60;;;8.50;78.70;;;;;;4977967;28;20436;-80
2023/03/10 01:49:42;;;;;;;6.90;4.60;;;8.50;78.70;;;;;;4977611;28;20027;-80
2023/03/10 01:52:20;;;;;;;7.20;4.55;;;8.50;78.80;;;;;;4978177;28;20045;-80
2023/03/10 01:55:13;;;;;;;7.88;4.50;;;8.50;79.20;;;;;;4978266;28;20026;-79
2023/03/10 02:00:13;;;;;;;6.65;4.28;;;8.50;78.70;;;;;;5050022;23;20576;-89
2023/03/10 02:03:01;;;;;;;7.72;4.10;;;8.50;78.70;;;;;;4982836;28;20026;-91
2023/03/10 02:05:28;;;;;;;7.35;4.15;;;8.60;78.80;;;;;;4978518;28;20046;-87
2023/03/10 02:07:55;;;;;;;6.80;4.40;;;8.50;78.70;;;;;;4996214;28;20029;-88
2023/03/10 02:10:20;;;;;;;7.40;4.38;;;8.50;78.80;;;;;;4977306;28;20203;-89
2023/03/10 02:12:46;;;;;;;7.13;4.28;;;8.50;78.70;;;;;;4995324;28;20441;-90
2023/03/10 02:15:12;;;;;;;7.30;4.28;;;8.50;78.80;;;;;;4977463;28;20018;-91
2023/03/10 02:17:38;;;;;;;6.55;4.07;;;8.50;78.80;;;;;;4976948;28;20061;-90
2023/03/10 02:20:45;;;;;;;6.57;3.97;;;8.50;78.80;;;;;;4977324;28;20034;-90
2023/03/10 02:23:17;;;;;;;6.60;4.00;;;8.50;78.70;;;;;;4955988;28;20042;-89
2023/03/10 02:25:55;;;;;;;6.32;3.70;;;8.50;78.80;;;;;;4994321;28;20057;-88
2023/03/10 02:28:20;;;;;;;6.43;3.65;;;8.50;78.80;;;;;;4993907;28;20485;-90
2023/03/10 02:30:48;;;;;;;6.35;3.60;;;8.50;78.80;;;;;;4994148;28;20109;-88
2023/03/10 02:33:21;;;;;;;6.25;3.90;;;8.50;78.80;;;;;;4976613;28;20118;-91
2023/03/10 02:35:47;;;;;;;6.50;3.72;;;8.50;78.70;;;;;;4976190;28;20030;-90
2023/03/10 02:38:12;;;;;;;6.30;3.60;;;8.50;78.70;;;;;;4976349;28;20034;-90
2023/03/10 02:40:49;;;;;;;6.38;3.72;;;8.50;78.80;;;;;;4976253;28;20056;-89
2023/03/10 02:43:25;;;;;;;6.40;4.05;;;8.50;78.80;;;;;;4976187;28;20081;-90
2023/03/10 02:49:12;;;;;;;6.15;3.80;;;8.50;78.80;;;;;;4991906;28;20109;-89
2023/03/10 02:51:43;;;;;;;7.05;3.72;;;8.50;78.80;;;;;;4973096;28;20124;-87
2023/03/10 02:54:10;;;;;;;6.22;3.60;;;8.50;78.70;;;;;;4974334;28;20026;-89
2023/03/10 02:56:36;;;;;;;6.43;3.72;;;8.50;78.80;;;;;;4976319;28;20062;-89
2023/03/10 02:59:04;;;;;;;6.00;3.58;;;8.50;78.80;;;;;;4975819;28;20113;-90
2023/03/10 03:01:30;;;;;;;6.25;3.60;;;8.50;78.80;;;;;;4993950;28;20085;-90
2023/03/10 03:03:56;;;;;;;5.45;3.38;;;8.50;78.80;;;;;;4976002;28;20034;-86
2023/03/10 03:06:22;;;;;;;6.57;3.80;;;8.50;78.90;;;;;;4976287;28;20023;-89
2023/03/10 03:08:47;;;;;;;6.78;3.72;;;8.50;78.80;;;;;;4975877;28;20030;-88
2023/03/10 03:11:13;;;;;;;6.00;3.58;;;8.50;78.90;;;;;;4993934;28;20535;-88
2023/03/10 03:13:39;;;;;;;5.95;3.33;;;8.50;78.80;;;;;;4976034;28;20532;-88
2023/03/10 03:16:06;;;;;;;6.43;3.88;;;8.50;78.90;;;;;;4993445;28;20044;-88
2023/03/10 03:18:31;;;;;;;6.40;3.25;;;8.50;78.90;;;;;;4975881;28;20069;-88
2023/03/10 03:20:57;;;;;;;5.50;3.17;;;8.50;78.80;;;;;;4993643;28;20054;-88
2023/03/10 03:23:22;;;;;;;5.80;3.38;;;8.50;78.80;;;;;;4975946;28;20449;-88
2023/03/10 03:25:48;;;;;;;5.35;3.10;;;8.60;78.80;;;;;;4976617;28;20027;-87
2023/03/10 03:28:13;;;;;;;5.93;3.60;;;8.50;78.80;;;;;;4976087;28;20030;-88
2023/03/10 03:30:39;;;;;;;5.97;3.47;;;8.60;78.80;;;;;;4975406;28;20046;-87
2023/03/10 03:33:06;;;;;;;5.32;3.28;;;8.50;78.80;;;;;;4975820;28;20370;-88
2023/03/10 03:35:34;;;;;;;5.25;2.95;;;8.50;78.80;;;;;;4975507;28;20062;-88
2023/03/10 03:38:00;;;;;;;5.93;2.88;;;8.50;78.80;;;;;;4975621;28;20026;-89
2023/03/10 03:40:28;;;;;;;5.07;2.95;;;8.50;78.90;;;;;;4993178;28;20035;-88
2023/03/10 03:42:53;;;;;;;5.15;3.00;;;8.50;78.90;;;;;;4975562;28;20032;-88
2023/03/10 03:45:23;;;;;;;5.93;3.15;;;8.50;78.80;;;;;;4975506;28;20124;-88
2023/03/10 03:47:49;;;;;;;5.47;3.03;;;8.60;78.90;;;;;;4975396;28;20082;-87
2023/03/10 03:50:16;;;;;;;5.88;3.10;;;8.50;78.90;;;;;;4975726;28;20026;-88
2023/03/10 03:52:42;;;;;;;5.22;3.20;;;8.50;78.90;;;;;;4976445;28;20484;-87
2023/03/10 03:55:10;;;;;;;5.18;3.08;;;8.50;78.80;;;;;;4975501;28;20027;-87
2023/03/10 03:57:36;;;;;;;4.82;2.80;;;8.50;78.90;;;;;;4975408;28;20031;-88
2023/03/10 04:00:07;;;;;;;5.28;3.17;;;8.50;78.90;;;;;;4975245;28;20034;-89
2023/03/10 04:02:33;;;;;;;5.93;2.90;;;8.50;78.90;;;;;;4975392;28;20034;-90
2023/03/10 04:04:59;;;;;;;5.95;3.08;;;8.50;79.00;;;;;;4992597;28;20460;-88
2023/03/10 04:07:24;;;;;;;5.90;3.20;;;8.50;78.90;;;;;;4992740;28;20030;-89
2023/03/10 04:09:50;;;;;;;4.93;2.97;;;8.60;79.00;;;;;;4974996;28;20039;-88
2023/03/10 04:12:15;;;;;;;5.07;2.90;;;8.50;78.80;;;;;;4975198;28;20473;-89
2023/03/10 04:14:41;;;;;;;4.95;3.00;;;8.50;78.90;;;;;;4975295;28;20185;-88
2023/03/10 04:17:06;;;;;;;5.38;3.13;;;8.50;78.90;;;;;;4975688;28;20018;-86
2023/03/10 04:19:32;;;;;;;5.53;3.05;;;8.50;79.00;;;;;;4976508;28;20034;-87
2023/03/10 04:21:57;;;;;;;5.20;2.97;;;8.50;78.90;;;;;;4994395;28;20022;-88
2023/03/10 04:24:23;;;;;;;5.10;2.83;;;8.50;79.00;;;;;;4993890;28;20058;-86
2023/03/10 04:26:48;;;;;;;5.82;3.03;;;8.50;78.90;;;;;;4993322;28;20026;-88
2023/03/10 04:29:14;;;;;;;4.88;3.00;;;8.50;78.90;;;;;;4992453;28;20507;-86
2023/03/10 04:31:39;;;;;;;5.82;2.92;;;8.50;78.90;;;;;;4975572;28;20022;-87
2023/03/10 04:34:05;;;;;;;4.80;2.78;;;8.50;79.00;;;;;;4974941;28;20043;-89
2023/03/10 04:36:31;;;;;;;4.75;2.78;;;8.50;78.90;;;;;;4975179;28;20023;-88
2023/03/10 04:38:56;;;;;;;4.38;2.60;;;8.60;79.00;;;;;;4975144;28;20030;-89
2023/03/10 04:41:22;;;;;;;5.55;2.88;;;8.50;78.90;;;;;;4978494;28;20057;-89
2023/03/10 04:43:48;;;;;;;4.68;2.78;;;8.50;79.00;;;;;;4978534;28;20401;-88
2023/03/10 04:46:14;;;;;;;5.50;2.75;;;8.50;79.00;;;;;;4978399;28;20501;-88
2023/03/10 04:48:39;;;;;;;4.53;2.50;;;8.50;79.00;;;;;;4977496;28;20018;-88
2023/03/10 04:51:07;;;;;;;4.68;2.70;;;8.50;79.00;;;;;;4978077;28;20469;-88
2023/03/10 04:53:34;;;;;;;4.80;2.65;;;8.50;78.90;;;;;;4978265;28;20033;-89
2023/03/10 04:56:00;;;;;;;4.93;2.72;;;8.50;79.00;;;;;;4978110;28;20074;-87
2023/03/10 04:58:26;;;;;;;4.80;2.58;;;8.50;79.00;;;;;;4995611;28;20038;-88
2023/03/10 05:00:52;;;;;;;4.80;2.90;;;8.50;79.00;;;;;;4978216;28;20082;-87
2023/03/10 05:03:18;;;;;;;4.93;2.80;;;8.50;78.90;;;;;;4978140;28;20037;-89
2023/03/10 05:05:43;;;;;;;5.15;2.50;;;8.50;79.00;;;;;;4978060;28;20025;-89
2023/03/10 05:08:09;;;;;;;5.13;2.90;;;8.50;79.00;;;;;;4977975;28;20449;-89
2023/03/10 05:10:35;;;;;;;4.22;2.40;;;8.50;78.90;;;;;;4977919;28;20022;-89
2023/03/10 05:13:00;;;;;;;4.18;2.50;;;8.50;78.90;;;;;;4995665;28;20107;-88
2023/03/10 05:15:26;;;;;;;3.95;2.58;;;8.50;78.90;;;;;;4977834;28;20469;-88
2023/03/10 05:17:52;;;;;;;4.90;2.65;;;8.50;79.00;;;;;;4977749;28;20029;-88
2023/03/10 05:20:18;;;;;;;4.72;2.72;;;8.50;79.00;;;;;;4977859;28;20028;-89
2023/03/10 05:22:43;;;;;;;4.60;2.30;;;8.50;78.90;;;;;;4977776;28;20033;-89
2023/03/10 05:25:10;;;;;;;4.70;2.70;;;8.50;79.00;;;;;;4977313;28;20026;-88
2023/03/10 05:27:37;;;;;;;4.68;2.70;;;8.50;79.00;;;;;;4977819;28;20519;-88
2023/03/10 05:30:05;;;;;;;5.18;3.05;;;8.50;79.00;;;;;;4995085;28;20027;-89
2023/03/10 05:32:34;;;;;;;4.53;2.53;;;8.50;78.90;;;;;;4976780;28;20030;-88
2023/03/10 05:35:01;;;;;;;4.65;2.70;;;8.50;79.10;;;;;;4971945;28;20023;-90
2023/03/10 05:37:26;;;;;;;5.25;2.45;;;8.50;79.60;;;;;;4978382;28;20035;-85
2023/03/10 05:39:52;;;;;;;5.00;2.70;;;8.50;79.00;;;;;;4978221;28;20041;-88
2023/03/10 05:42:18;;;;;;;4.68;2.60;;;8.50;79.00;;;;;;4978539;28;20041;-85
2023/03/10 05:44:43;;;;;;;4.97;2.90;;;8.50;79.00;;;;;;4980199;28;20034;-83
2023/03/10 05:47:12;;;;;;;3.97;2.45;;;8.50;78.90;;;;;;4973781;28;20880;-89
2023/03/10 05:49:38;;;;;;;3.78;2.38;;;8.50;79.00;;;;;;4966776;28;20025;-89
2023/03/10 05:52:04;;;;;;;4.05;2.40;;;8.50;79.00;;;;;;4974158;28;20030;-89
2023/03/10 05:54:29;;;;;;;5.03;2.58;;;8.50;79.00;;;;;;4973791;28;20033;-89
2023/03/10 05:56:55;;;;;;;4.13;2.50;;;8.50;79.00;;;;;;4975497;28;20453;-89
2023/03/10 05:59:20;;;;;;;4.50;2.65;;;8.50;78.90;;;;;;4976731;28;20408;-87
2023/03/10 06:01:46;;;;;;;4.38;2.47;;;8.50;79.00;;;;;;4976134;28;20033;-88
2023/03/10 06:04:11;;;;;;;4.97;2.75;;;8.50;79.00;;;;;;4974102;28;20022;-89
2023/03/10 06:06:37;;;;;;;4.50;2.38;;;8.50;79.00;;;;;;4976954;28;20350;-88
2023/03/10 06:09:03;;;;;;;4.70;2.70;;;8.50;78.90;;;;;;4974413;28;20037;-88
2023/03/10 06:11:34;;;;;;;6.13;2.90;;;8.50;79.00;;;;;;4995451;28;20533;-89
2023/03/10 06:13:59;;;;;;;5.15;2.60;;;8.50;79.00;;;;;;4978433;28;20026;-87
2023/03/10 06:16:25;;;;;;;7.40;3.05;;;8.50;79.00;;;;;;4975866;28;20026;-83
2023/03/10 06:18:55;;;;;;;5.25;2.72;;;8.50;79.00;;;;;;4973356;28;20031;-88
2023/03/10 06:21:21;;;;;;;5.45;2.70;;;8.50;79.10;;;;;;4999662;28;20026;-87
2023/03/10 06:23:47;;;;;;;6.32;3.05;;;8.50;79.00;;;;;;5001555;28;20032;-91
2023/03/10 06:26:15;;;;;;;4.60;2.50;;;8.50;79.10;;;;;;4995880;28;20042;-88
2023/03/10 06:28:43;;;;;;;4.25;2.25;;;8.50;79.00;;;;;;4989074;28;20556;-86
2023/03/10 06:31:14;;;;;;;6.25;3.13;;;8.50;79.10;;;;;;4987063;28;20026;-89
2023/03/10 06:33:40;;;;;;;5.20;2.55;;;8.50;79.10;;;;;;4988553;28;20031;-89
2023/03/10 06:36:08;;;;;;;5.03;2.63;;;8.50;79.10;;;;;;4983986;28;20045;-90
2023/03/10 06:38:34;;;;;;;5.38;2.60;;;8.50;79.20;;;;;;4973718;28;20042;-84
2023/03/10 06:40:59;;;;;;;5.05;2.63;;;8.50;79.20;;;;;;4966265;28;20027;-87
2023/03/10 06:43:25;;;;;;;4.63;2.60;;;8.50;79.10;;;;;;4961266;28;20093;-87
2023/03/10 06:45:51;;;;;;;5.50;3.05;;;8.50;79.10;;;;;;4960071;28;20046;-91
2023/03/10 06:48:16;;;;;;;5.03;2.67;;;8.50;79.10;;;;;;4957873;28;20031;-86
2023/03/10 06:50:44;;;;;;;4.97;2.60;;;8.50;79.20;;;;;;4957606;28;20034;-90
2023/03/10 06:53:10;;;;;;;5.40;3.20;;;8.50;79.20;;;;;;4956950;28;20030;-88
2023/03/10 06:55:37;;;;;;;5.22;2.55;;;9.00;79.50;;;;;;4955373;28;20093;-90
2023/03/10 06:58:02;;;;;;;5.05;2.38;;;8.50;79.20;;;;;;4954752;28;20027;-88
2023/03/10 07:00:28;;;;;;;4.25;2.58;;;8.50;79.20;;;;;;4954546;28;20038;-89
2023/03/10 07:02:54;;;;;;;4.60;2.50;;;8.50;79.20;;;;;;4954457;28;20031;-90
2023/03/10 07:05:21;;;;;;;6.72;2.90;;;9.20;79.50;;;;;;4954191;28;20126;-91
2023/03/10 07:07:49;;;;;;;7.72;2.83;;;8.50;79.10;;;;;;4956096;28;20050;-87
2023/03/10 07:10:15;;;;;;;9.05;3.10;;;8.50;79.20;;;;;;4959460;28;20138;-85
2023/03/10 07:12:41;;;;;;;12.48;3.50;;;8.50;79.20;;;;;;4958190;28;20090;-86
2023/03/10 07:15:07;;;;;;;28.10;4.30;;;8.50;79.10;;;;;;4954704;28;20501;-85
2023/03/10 07:17:33;;;;;;;19.50;4.25;;;8.50;79.10;;;;;;4973617;28;20034;-85
2023/03/10 07:19:58;;;;;;;32.72;5.82;;;8.50;79.20;;;;;;4955018;28;20042;-88
2023/03/10 07:22:24;;;;;;;37.58;6.32;;;8.50;79.20;;;;;;4954675;28;20031;-89
2023/03/10 07:24:53;;;;;;;49.65;7.78;;;8.50;79.20;;;;;;4954918;28;20045;-85
2023/03/10 07:27:18;;;;;;;47.17;6.97;;;8.50;79.20;;;;;;4956325;28;20034;-88
2023/03/10 07:29:44;;;;;;;47.22;7.10;;;8.50;79.20;;;;;;4956593;28;20039;-85
2023/03/10 07:32:09;;;;;;;56.20;8.05;;;8.50;79.20;;;;;;4955358;28;20030;-88
2023/03/10 07:34:35;;;;;;;58.40;7.82;;;8.50;79.20;;;;;;4954324;28;20045;-86
2023/03/10 07:37:03;;;;;;;52.30;7.20;;;8.50;79.30;;;;;;4954701;28;20019;-86
2023/03/10 07:39:29;;;;;;;42.30;7.32;;;8.50;79.20;;;;;;4954208;28;20031;-88
2023/03/10 07:41:54;;;;;;;53.45;8.55;;;8.50;79.10;;;;;;4956813;28;20023;-88
2023/03/10 07:44:20;;;;;;;65.95;9.52;;;8.60;79.20;;;;;;4957513;28;20489;-87
2023/03/10 07:46:45;;;;;;;57.08;9.27;;;8.50;79.20;;;;;;4954986;28;20031;-89
2023/03/10 07:49:17;;;;;;;45.15;6.97;;;9.90;80.10;;;;;;4955522;28;20049;-89
2023/03/10 07:51:43;;;;;;;41.60;8.07;;;8.50;79.10;;;;;;4955276;28;20035;-84
2023/03/10 07:54:11;;;;;;;36.85;6.97;;;8.50;79.20;;;;;;4963707;28;20090;-88
2023/03/10 07:56:36;;;;;;;41.60;8.15;;;8.60;79.20;;;;;;4973293;28;20085;-85
2023/03/10 07:59:02;;;;;;;36.53;7.82;;;8.50;79.20;;;;;;4956037;28;20043;-84
2023/03/10 08:01:27;;;;;;;48.85;8.27;;;8.50;79.20;;;;;;4960824;28;20027;-83
2023/03/10 08:03:53;;;;;;;47.17;8.77;;;8.50;79.20;;;;;;4955077;28;20034;-83
2023/03/10 08:06:21;;;;;;;52.30;8.63;;;8.50;79.20;;;;;;4972642;28;20030;-83
2023/03/10 08:08:47;;;;;;;60.65;10.55;;;8.50;79.20;;;;;;4955639;28;20073;-82
2023/03/10 08:11:12;;;;;;;65.82;11.20;;;8.50;79.20;;;;;;4956225;28;20377;-83
2023/03/10 08:13:38;;;;;;;54.75;10.07;;;8.50;79.20;;;;;;4973046;28;20203;-82
2023/03/10 08:16:05;;;;;;;58.38;10.02;;;8.50;79.20;;;;;;4959206;28;20397;-81
2023/03/10 08:18:30;;;;;;;57.88;9.27;;;8.50;79.30;;;;;;4959509;28;20033;-82
2023/03/10 08:20:57;;;;;;;68.82;9.65;;;8.50;79.20;;;;;;4961474;28;20026;-81
2023/03/10 08:23:24;;;;;;;62.25;9.15;;;8.50;79.30;;;;;;4969838;28;20027;-83
2023/03/10 08:25:49;;;;;;;51.53;9.10;;;8.50;79.20;;;;;;4961207;28;20031;-82
2023/03/10 08:28:15;;;;;;;67.80;10.75;;;8.50;79.20;;;;;;4959401;28;20037;-83
2023/03/10 08:30:41;;;;;;;54.90;8.40;;;8.50;79.30;;;;;;4963169;28;20027;-84
2023/03/10 08:33:07;;;;;;;64.20;10.13;;;8.50;79.30;;;;;;4996478;28;20753;-84
2023/03/10 08:35:33;;;;;;;44.60;9.35;;;8.50;79.30;;;;;;4984241;28;20018;-85
2023/03/10 08:37:59;;;;;;;57.75;9.27;;;8.50;79.30;;;;;;4984734;28;20026;-83
2023/03/10 08:40:24;;;;;;;45.72;9.27;;;8.50;79.30;;;;;;4983932;28;20034;-85
2023/03/10 08:42:50;;;;;;;38.35;8.05;;;8.50;79.30;;;;;;4982262;28;20041;-85
2023/03/10 08:45:16;;;;;;;64.45;10.38;;;8.50;79.20;;;;;;4979794;28;20682;-85
2023/03/10 08:47:42;;;;;;;45.78;9.20;;;8.50;79.20;;;;;;4979929;28;20485;-83
2023/03/10 08:50:08;;;;;;;55.38;9.70;;;8.50;79.20;;;;;;4979648;28;20033;-85
2023/03/10 08:52:34;;;;;;;44.67;9.85;;;8.50;79.20;;;;;;4979776;28;20121;-83
2023/03/10 08:54:59;;;;;;;54.20;9.20;;;8.50;79.20;;;;;;4975768;28;20054;-83
2023/03/10 08:57:25;;;;;;;40.92;9.90;;;8.50;79.30;;;;;;4974507;28;20019;-84
2023/03/10 08:59:50;;;;;;;46.10;9.30;;;8.50;79.30;;;;;;4980936;28;20094;-85
2023/03/10 09:02:16;;;;;;;44.80;9.70;;;8.50;79.20;;;;;;4983256;28;20155;-81
2023/03/10 09:04:42;;;;;;;45.85;10.00;;;8.50;79.30;;;;;;5002833;28;20038;-82
2023/03/10 09:07:07;;;;;;;36.80;9.57;;;8.50;79.30;;;;;;4979436;28;20041;-82
2023/03/10 09:09:33;;;;;;;36.20;9.77;;;8.50;79.30;;;;;;4998984;28;20041;-85
2023/03/10 09:11:58;;;;;;;44.72;9.30;;;8.50;79.30;;;;;;4981254;28;20078;-83
2023/03/10 09:14:24;;;;;;;39.70;8.75;;;8.50;79.30;;;;;;4960400;28;20122;-83
2023/03/10 09:16:50;;;;;;;32.13;8.63;;;8.50;79.30;;;;;;4960959;28;20425;-84
2023/03/10 09:19:16;;;;;;;39.78;9.65;;;8.50;79.30;;;;;;5228926;23;20514;-88
2023/03/10 09:21:41;;;;;;;45.55;9.38;;;8.50;79.30;;;;;;4943663;29;20046;-86
2023/03/10 09:24:08;;;;;;;39.70;8.85;;;8.50;79.30;;;;;;4943378;29;20236;-87
2023/03/10 09:26:33;;;;;;;37.78;8.18;;;9.60;79.90;;;;;;4943961;29;20038;-86
2023/03/10 09:28:59;;;;;;;35.53;7.68;;;8.60;79.30;;;;;;4945283;29;20039;-88
2023/03/10 09:31:31;;;;;;;32.78;7.90;;;8.50;79.30;;;;;;4944801;29;20023;-86
2023/03/10 09:33:56;;;;;;;35.38;8.15;;;8.40;79.40;;;;;;4939567;29;20498;-85
2023/03/10 09:36:22;;;;;;;19.05;5.40;;;8.80;79.50;;;;;;4941524;29;20056;-88
2023/03/10 09:38:47;;;;;;;23.45;6.55;;;9.50;79.80;;;;;;4949673;29;20435;-87
2023/03/10 09:41:32;;;;;;;31.30;7.53;;;8.60;79.30;;;;;;4944146;29;20478;-86
2023/03/10 09:44:23;;;;;;;29.63;6.63;;;8.50;79.30;;;;;;4949043;29;20103;-86
2023/03/10 09:46:55;;;;;;;;;;;8.50;79.40;;;;;;4952374;29;20027;-86
2023/03/10 09:49:30;;;;;;;26.50;6.82;;;8.60;79.50;;;;;;4950784;28;19938;-84
2023/03/10 09:51:56;;;;;;;26.05;6.93;;;8.40;79.40;;;;;;4960584;29;20039;-87
2023/03/10 09:54:30;;;;;;;36.10;7.45;;;8.50;79.50;;;;;;4940218;29;20024;-89
2023/03/10 09:56:58;;;;;;;28.25;7.03;;;8.50;79.50;;;;;;4940449;29;20023;-88
2023/03/10 09:59:33;;;;;;;25.60;7.03;;;8.50;79.50;;;;;;4939211;29;20027;-88
2023/03/10 10:01:59;;;;;;;31.38;7.80;;;8.50;79.50;;;;;;4939149;29;20035;-89
2023/03/10 10:04:38;;;;;;;28.80;6.45;;;8.50;79.50;;;;;;4939533;29;20043;-86
2023/03/10 10:07:13;;;;;;;34.10;7.90;;;8.50;79.50;;;;;;4938133;29;20032;-85
2023/03/10 10:09:47;;;;;;;18.17;5.32;;;8.50;79.50;;;;;;4939405;29;20031;-85
2023/03/10 10:12:17;;;;;;;25.92;7.28;;;8.50;79.60;;;;;;4939224;29;20026;-89
2023/03/10 10:14:44;;;;;;;27.85;6.45;;;8.50;79.60;;;;;;4939929;29;20055;-85
2023/03/10 10:17:25;;;;;;;26.85;6.60;;;8.50;79.60;;;;;;4940100;29;20031;-87
2023/03/10 10:22:36;;;;;;;;;;;;;;;;;;;;;
2023/03/10 10:29:05;;;;;;;22.10;6.30;;;8.50;79.60;;;;;;4915304;29;20071;-85
2023/03/10 10:31:32;;;;;;;24.42;6.55;;;8.30;79.50;;;;;;4898856;29;20028;-86
2023/03/10 10:34:31;;;;;;;21.38;5.72;;;7.70;79.10;;;;;;4889191;29;20036;-82
2023/03/10 10:37:37;;;;;;;25.00;6.03;;;8.60;79.70;;;;;;4943464;28;20065;-84
2023/03/10 10:43:55;;;;;;;17.67;6.50;;;8.40;79.50;;;;;;4960249;28;20046;-84
2023/03/10 10:46:29;;;;;;;21.42;6.00;;;8.40;79.60;;;;;;4955966;28;20030;-84
2023/03/10 10:49:07;;;;;;;23.80;6.18;;;9.40;80.10;;;;;;5040891;23;20056;-84
2023/03/10 10:51:36;;;;;;;17.52;6.05;;;8.50;79.60;;;;;;4994371;28;20029;-84
2023/03/10 10:54:18;;;;;;;21.10;5.20;;;8.50;79.70;;;;;;4993067;28;20026;-83
2023/03/10 10:56:52;;;;;;;16.60;5.05;;;8.50;79.70;;;;;;4993227;28;20053;-85
2023/03/10 10:59:20;;;;;;;13.20;4.82;;;8.50;79.70;;;;;;4993356;28;20145;-83
2023/03/10 11:01:56;;;;;;;16.88;5.03;;;8.50;79.70;;;;;;4994838;28;20030;-86
2023/03/10 11:04:24;;;;;;;14.90;4.90;;;8.50;79.70;;;;;;5013832;28;20033;-84
2023/03/10 11:06:50;;;;;;;16.02;5.80;;;8.50;79.70;;;;;;5014817;28;20033;-84
2023/03/10 11:27:42;;;;;;;16.35;5.00;;;8.50;79.80;;;;;;5011746;28;20053;-84
2023/03/10 11:31:25;;;;;;;15.40;4.53;;;8.60;79.80;;;;;;4994652;28;20428;-84
2023/03/10 11:34:29;;;;;;;;;;;;;;;;;;;;;
2023/03/10 11:37:15;;;;;;;10.93;3.88;;;8.50;79.80;;;;;;4991732;28;20540;-84
2023/03/10 11:47:16;;;;;;;12.75;4.25;;;8.40;79.80;;;;;;4980022;28;20035;-84
2023/03/10 11:49:50;;;;;;;12.40;4.20;;;8.50;79.90;;;;;;4976612;28;20035;-81
2023/03/10 11:52:52;;;;;;;14.02;4.68;;;8.60;79.90;;;;;;4978314;28;20062;-82
2023/03/10 11:59:49;;;;;;;;;;;;;;;;;;;;;
2023/03/10 12:03:15;;;;;;;11.23;3.50;;;8.50;79.80;;;;;;4955356;28;20049;-84
2023/03/10 12:06:22;;;;;;;10.60;3.95;;;8.50;79.80;;;;;;4911901;29;20039;-86
2023/03/10 12:09:07;;;;;;;12.98;4.50;;;8.50;79.90;;;;;;4970433;28;20046;-85
2023/03/10 12:11:34;;;;;;;8.85;3.28;;;8.60;80.00;;;;;;4979144;28;20397;-84
2023/03/10 12:14:03;;;;;;;12.60;3.70;;;8.50;79.90;;;;;;4982290;28;20030;-85
2023/03/10 12:17:11;;;;;;;11.63;3.72;;;8.50;79.90;;;;;;4982205;28;20026;-86
2023/03/10 12:20:32;;;;;;;13.23;3.88;;;8.40;79.90;;;;;;4973509;28;20044;-83
2023/03/10 12:23:26;;;;;;;12.77;3.92;;;8.50;80.00;;;;;;4998967;28;20042;-82
2023/03/10 12:25:52;;;;;;;13.48;3.78;;;9.10;80.30;;;;;;4976900;28;20041;-82
2023/03/10 12:28:26;;;;;;;11.95;4.00;;;8.50;80.00;;;;;;4978434;28;20030;-83
2023/03/10 12:31:01;;;;;;;8.32;3.40;;;8.50;80.00;;;;;;4978483;28;20034;-83
2023/03/10 12:33:29;;;;;;;11.10;3.70;;;8.50;80.00;;;;;;4977314;28;20488;-82
2023/03/10 12:36:09;;;;;;;8.73;3.10;;;8.50;80.00;;;;;;4979477;28;20030;-85
2023/03/10 12:38:40;;;;;;;9.00;2.88;;;8.50;80.00;;;;;;4996020;28;20026;-84
2023/03/10 12:41:06;;;;;;;10.48;3.53;;;8.50;80.00;;;;;;4977969;28;20484;-84
2023/03/10 12:43:51;;;;;;;8.05;3.35;;;8.50;80.00;;;;;;4996495;28;20038;-83
2023/03/10 12:46:38;;;;;;;9.43;3.38;;;8.50;80.00;;;;;;4979401;28;20125;-83
2023/03/10 12:49:27;;;;;;;8.20;3.13;;;8.60;80.00;;;;;;4977720;28;20041;-87
2023/03/10 12:52:06;;;;;;;9.02;3.58;;;8.50;80.00;;;;;;4977371;28;20507;-85
2023/03/10 12:55:11;;;;;;;13.40;4.10;;;8.50;80.00;;;;;;4993644;28;20030;-89
2023/03/10 12:57:55;;;;;;;19.85;5.40;;;8.50;80.00;;;;;;4976448;28;20053;-88
2023/03/10 13:00:46;;;;;;;23.65;5.60;;;8.50;80.00;;;;;;4980351;28;20068;-89
2023/03/10 13:03:18;;;;;;;18.40;5.10;;;8.50;80.10;;;;;;4981725;28;20030;-86
2023/03/10 13:06:00;;;;;;;18.90;4.07;;;8.50;80.00;;;;;;4980107;28;20034;-86
2023/03/10 13:08:32;;;;;;;18.42;4.70;;;8.50;80.10;;;;;;4978813;28;20078;-86
2023/03/10 13:10:59;;;;;;;24.38;5.05;;;8.50;80.00;;;;;;4979949;28;20065;-86
2023/03/10 13:13:30;;;;;;;16.35;4.47;;;8.50;80.10;;;;;;4978964;28;20101;-87
2023/03/10 13:15:59;;;;;;;19.73;5.32;;;8.50;80.10;;;;;;4978474;28;20031;-88
2023/03/10 13:18:25;;;;;;;23.40;5.75;;;8.50;80.10;;;;;;4977431;28;20022;-89
2023/03/10 13:20:50;;;;;;;22.95;5.88;;;8.50;80.00;;;;;;4977163;28;20022;-88
2023/03/10 13:23:26;;;;;;;24.48;5.50;;;8.50;80.00;;;;;;4976672;28;20053;-90
2023/03/10 13:25:58;;;;;;;17.63;4.45;;;8.90;80.20;;;;;;4976491;28;20478;-87
2023/03/10 13:28:26;;;;;;;24.38;5.88;;;8.60;80.00;;;;;;4976221;28;20053;-87
2023/03/10 13:31:04;;;;;;;24.05;5.75;;;8.60;80.00;;;;;;4974654;28;20041;-87
2023/03/10 13:33:30;;;;;;;21.17;5.70;;;8.60;80.00;;;;;;4974966;28;20018;-88
2023/03/10 13:35:55;;;;;;;25.80;6.25;;;8.60;80.00;;;;;;4988292;28;20022;-88
2023/03/10 13:38:23;;;;;;;22.10;5.25;;;8.50;80.00;;;;;;4994272;28;20361;-88
2023/03/10 13:40:57;;;;;;;20.02;5.00;;;8.60;80.00;;;;;;4994363;28;20041;-88
2023/03/10 13:43:34;;;;;;;20.63;5.03;;;8.60;80.00;;;;;;4994133;28;20065;-89
2023/03/10 13:46:02;;;;;;;22.00;5.95;;;8.60;80.00;;;;;;4994063;28;20460;-88
2023/03/10 13:48:29;;;;;;;17.30;4.53;;;8.60;80.00;;;;;;4993530;28;20113;-88
2023/03/10 13:51:07;;;;;;;27.48;5.07;;;8.60;80.00;;;;;;4994018;28;20030;-87
2023/03/10 13:53:33;;;;;;;24.10;5.78;;;8.60;80.00;;;;;;4994455;28;20014;-89
2023/03/10 13:55:58;;;;;;;17.70;4.90;;;8.60;80.10;;;;;;4993748;28;20049;-87